LKPR/PRG METAR and TAF weather

Enter ICAO airport designator
Station Type Date Time Source
LKPR METAR 2022/12/10 02:00 UTC NOAA

LKPR 100200Z 32003KT 7000 OVC019 M00/M01 Q1004 NOSIG


Station Type Date Time Source
LKPR Decoded METAR 2022/12/10 02:00 UTC NOAA

Praha / Ruzyne, Czech Republic (LKPR) 50-06N 014-15E 365M
Dec 09, 2022 - 09:00 PM EST / 2022.12.10 0200 UTC
Wind: from the NW (320 degrees) at 3 MPH (3 KT):0
Visibility: 4 mile(s):0
Sky conditions: overcast
Temperature: 32 F (0 C)
Dew Point: 30 F (-1 C)
Relative Humidity: 92%
Pressure (altimeter): 29.65 in. Hg (1004 hPa)
ob: LKPR 100200Z 32003KT 7000 OVC019 M00/M01 Q1004 NOSIG
cycle: 2

Station Type Date Time Source
LKPR TAF 2022/12/09 21:26 UTC NOAA

TAF LKPR 092000Z 0921/1103 35005KT 7000 BKN020
TEMPO 0921/1000 3000 -SN BR BKN007 OVC012
TEMPO 1000/1014 4000 BR BKN011 PROB30
TEMPO 1000/1008 BKN005
TEMPO 1014/1103 SCT020

Example: see airport list